createdAt,value
2023-02-06T00:01:18.105Z,102716.91
2023-02-06T00:03:45.001Z,102719.16
2023-02-06T00:06:11.996Z,102707.72
2023-02-06T00:08:38.912Z,102722.91
2023-02-06T00:11:07.752Z,102718.81
2023-02-06T00:13:35.622Z,102714.53
2023-02-06T00:16:02.749Z,102719.72
2023-02-06T00:18:29.697Z,102718.94
2023-02-06T00:20:56.575Z,102713.00
2023-02-06T00:23:23.470Z,102711.47
2023-02-06T00:25:50.374Z,102713.81
2023-02-06T00:28:17.433Z,102705.19
2023-02-06T00:30:47.231Z,102701.16
2023-02-06T00:33:14.440Z,102689.72
2023-02-06T00:35:41.544Z,102700.87
2023-02-06T00:38:10.607Z,102703.69
2023-02-06T00:40:38.028Z,102710.75
2023-02-06T00:43:05.150Z,102717.87
2023-02-06T00:45:32.122Z,102699.47
2023-02-06T00:47:59.117Z,102703.69
2023-02-06T00:50:26.813Z,102716.00
2023-02-06T00:52:53.634Z,102715.03
2023-02-06T00:55:20.556Z,102717.53
2023-02-06T00:57:47.412Z,102721.66
2023-02-06T01:00:15.501Z,102716.50
2023-02-06T01:02:42.747Z,102712.91
2023-02-06T01:05:10.072Z,102710.84
2023-02-06T01:07:39.456Z,102715.19
2023-02-06T01:10:09.718Z,102720.50
2023-02-06T01:12:39.622Z,102730.94
2023-02-06T01:15:07.601Z,102703.53
2023-02-06T01:17:34.674Z,102714.75
2023-02-06T01:20:01.796Z,102712.13
2023-02-06T01:22:28.766Z,102719.56
2023-02-06T01:24:55.601Z,102712.34
2023-02-06T01:27:22.501Z,102710.31
2023-02-06T01:29:49.349Z,102707.91
2023-02-06T01:32:16.314Z,102704.34
2023-02-06T01:34:43.250Z,102702.47
2023-02-06T01:37:10.257Z,102704.56
2023-02-06T01:39:37.159Z,102691.28
2023-02-06T01:42:04.829Z,102674.75
2023-02-06T01:44:32.605Z,102673.94
2023-02-06T01:46:59.538Z,102673.94
2023-02-06T01:49:36.715Z,102681.91
2023-02-06T01:52:24.733Z,102683.31
2023-02-06T01:54:55.158Z,102682.66
2023-02-06T01:57:22.486Z,102676.31
2023-02-06T01:59:54.974Z,102670.97
2023-02-06T02:02:23.060Z,102669.16
2023-02-06T02:04:50.050Z,102661.69
2023-02-06T02:07:30.058Z,102663.34
2023-02-06T02:09:56.991Z,102650.78
2023-02-06T02:12:24.218Z,102648.06
2023-02-06T02:14:52.485Z,102646.38
2023-02-06T02:17:36.049Z,102648.81
2023-02-06T02:20:14.826Z,102660.41
2023-02-06T02:23:00.535Z,102667.34
2023-02-06T02:25:59.490Z,102663.97
2023-02-06T02:28:29.131Z,102669.12
2023-02-06T02:30:56.316Z,102670.84
2023-02-06T02:33:43.268Z,102669.12
2023-02-06T02:36:20.613Z,102678.69
2023-02-06T02:39:08.771Z,102680.44
2023-02-06T02:42:01.714Z,102689.84
2023-02-06T02:44:55.541Z,102690.50
2023-02-06T02:47:27.269Z,102700.84
2023-02-06T02:49:54.913Z,102698.19
2023-02-06T02:52:21.799Z,102696.16
2023-02-06T02:54:48.797Z,102695.88
2023-02-06T02:57:22.707Z,102693.38
2023-02-06T02:59:50.697Z,102701.13
2023-02-06T03:02:33.877Z,102702.13
2023-02-06T03:05:06.931Z,102704.47
2023-02-06T03:07:51.092Z,102705.31
2023-02-06T03:10:31.313Z,102714.03
2023-02-06T03:13:41.775Z,102728.94
2023-02-06T03:16:33.607Z,102725.44
2023-02-06T03:19:40.328Z,102739.59
2023-02-06T03:22:07.268Z,102729.91
2023-02-06T03:24:37.858Z,102747.47
2023-02-06T03:27:08.799Z,102730.03
2023-02-06T03:29:38.421Z,102729.38
2023-02-06T03:32:11.258Z,102749.19
2023-02-06T03:35:02.853Z,102749.44
2023-02-06T03:37:30.159Z,102736.53
2023-02-06T03:39:59.581Z,102729.66
2023-02-06T03:42:28.850Z,102726.22
2023-02-06T03:45:20.706Z,102738.28
2023-02-06T03:47:48.808Z,102728.44
2023-02-06T03:50:16.404Z,102734.66
2023-02-06T03:52:47.623Z,102730.94
2023-02-06T03:55:19.185Z,102731.41
2023-02-06T03:57:49.200Z,102729.56
2023-02-06T04:00:16.654Z,102736.53
2023-02-06T04:02:46.358Z,102732.38
2023-02-06T04:05:15.072Z,102726.41
2023-02-06T04:07:41.967Z,102732.88
2023-02-06T04:10:09.281Z,102736.16
2023-02-06T04:12:37.034Z,102745.97
2023-02-06T04:15:04.565Z,102757.78
2023-02-06T04:17:46.225Z,102755.66
2023-02-06T04:20:16.963Z,102755.25
2023-02-06T04:22:43.920Z,102760.59
2023-02-06T04:25:10.970Z,102761.97
2023-02-06T04:27:38.243Z,102768.16
2023-02-06T04:30:06.301Z,102763.97
2023-02-06T04:32:33.621Z,102765.69
2023-02-06T04:35:00.499Z,102771.09
2023-02-06T04:37:27.473Z,102772.94
2023-02-06T04:39:55.499Z,102774.09
2023-02-06T04:42:22.579Z,102779.13
2023-02-06T04:44:49.466Z,102773.44
2023-02-06T04:47:16.434Z,102764.63
2023-02-06T04:49:43.470Z,102754.91
2023-02-06T04:52:10.478Z,102759.50
2023-02-06T04:54:37.375Z,102765.87
2023-02-06T04:57:04.226Z,102759.97
2023-02-06T04:59:31.339Z,102749.47
2023-02-06T05:01:58.285Z,102762.09
2023-02-06T05:04:25.367Z,102764.84
2023-02-06T05:06:52.252Z,102762.28
2023-02-06T05:09:19.341Z,102764.97
2023-02-06T05:11:46.294Z,102760.16
2023-02-06T05:14:13.211Z,102749.06
2023-02-06T05:16:40.281Z,102756.50
2023-02-06T05:19:07.427Z,102745.06
2023-02-06T05:21:34.464Z,102744.63
2023-02-06T05:24:01.353Z,102740.50
2023-02-06T05:26:28.353Z,102756.13
2023-02-06T05:28:55.228Z,102743.75
2023-02-06T05:31:22.582Z,102746.03
2023-02-06T05:33:53.730Z,102753.03
2023-02-06T05:36:21.888Z,102763.75
2023-02-06T05:38:49.119Z,102767.81
2023-02-06T05:41:16.734Z,102755.91
2023-02-06T05:43:43.709Z,102760.44
2023-02-06T05:46:12.915Z,102763.31
2023-02-06T05:48:40.227Z,102763.25
2023-02-06T05:51:07.116Z,102771.12
2023-02-06T05:53:33.943Z,102761.41
2023-02-06T05:56:00.728Z,102756.44
2023-02-06T05:58:27.908Z,102759.88
2023-02-06T06:00:54.829Z,102757.44
2023-02-06T06:03:21.862Z,102759.19
2023-02-06T06:05:49.127Z,102764.84
2023-02-06T06:08:16.094Z,102763.03
2023-02-06T06:10:43.067Z,102752.53
2023-02-06T06:13:10.160Z,102764.12
2023-02-06T06:15:37.390Z,102759.50
2023-02-06T06:18:04.583Z,102763.59
2023-02-06T06:20:31.488Z,102766.84
2023-02-06T06:23:05.752Z,102757.62
2023-02-06T06:25:32.634Z,102757.78
2023-02-06T06:27:59.476Z,102752.13
2023-02-06T06:30:26.417Z,102740.47
2023-02-06T06:32:53.656Z,102736.25
2023-02-06T06:35:20.640Z,102720.12
2023-02-06T06:37:47.694Z,102696.00
2023-02-06T06:40:14.541Z,102708.00
2023-02-06T06:42:41.370Z,102705.03
2023-02-06T06:45:08.415Z,102681.00
2023-02-06T06:47:35.295Z,102645.16
2023-02-06T06:50:02.202Z,102633.03
2023-02-06T06:52:29.579Z,102628.19
2023-02-06T06:54:56.526Z,102603.13
2023-02-06T06:57:23.854Z,102637.81
2023-02-06T06:59:52.803Z,102645.38
2023-02-06T07:02:19.773Z,102654.50
2023-02-06T07:04:46.893Z,102687.56
2023-02-06T07:07:13.833Z,102682.00
2023-02-06T07:09:42.212Z,102653.84
2023-02-06T07:12:09.106Z,102662.03
2023-02-06T07:14:35.972Z,102666.44
2023-02-06T07:17:03.055Z,102652.78
2023-02-06T07:19:30.023Z,102634.38
2023-02-06T07:21:56.941Z,102640.84
2023-02-06T07:24:23.843Z,102649.44
2023-02-06T07:26:50.787Z,102661.97
2023-02-06T07:29:17.675Z,102657.41
2023-02-06T07:31:44.610Z,102665.31
2023-02-06T07:34:12.585Z,102681.47
2023-02-06T07:36:39.524Z,102688.44
2023-02-06T07:39:06.388Z,102699.50
2023-02-06T07:41:33.479Z,102709.13
2023-02-06T07:44:00.373Z,102696.03
2023-02-06T07:46:27.322Z,102697.72
2023-02-06T07:48:54.314Z,102690.56
2023-02-06T07:51:21.414Z,102688.69
2023-02-06T07:53:48.476Z,102673.63
2023-02-06T07:56:17.537Z,102643.78
2023-02-06T07:58:44.892Z,102645.00
2023-02-06T08:01:11.827Z,102644.63
2023-02-06T08:03:38.880Z,102634.75
2023-02-06T08:06:14.669Z,102605.94
2023-02-06T08:08:42.304Z,102589.56
2023-02-06T08:11:11.745Z,102603.84
2023-02-06T08:13:38.736Z,102583.94
2023-02-06T08:16:07.651Z,102586.72
2023-02-06T08:18:35.039Z,102568.38
2023-02-06T08:21:03.663Z,102564.44
2023-02-06T08:23:30.778Z,102559.91
2023-02-06T08:26:11.250Z,102567.62
2023-02-06T08:28:38.260Z,102572.31
2023-02-06T08:31:19.888Z,102550.47
2023-02-06T08:33:47.341Z,102560.06
2023-02-06T08:36:14.966Z,102560.69
2023-02-06T08:38:42.331Z,102575.06
2023-02-06T08:41:24.618Z,102557.94
2023-02-06T08:43:53.355Z,102559.34
2023-02-06T08:46:20.711Z,102528.88
2023-02-06T08:48:47.713Z,102528.28
2023-02-06T08:51:15.409Z,102503.19
2023-02-06T08:53:43.020Z,102526.19
2023-02-06T08:56:11.235Z,102528.47
2023-02-06T08:58:38.718Z,102527.78
2023-02-06T09:01:11.314Z,102513.03
2023-02-06T09:03:38.269Z,102517.87
2023-02-06T09:06:10.226Z,102528.63
2023-02-06T09:08:38.477Z,102517.06
2023-02-06T09:11:11.290Z,102528.72
2023-02-06T09:13:38.604Z,102539.19
2023-02-06T09:16:06.193Z,102530.50
2023-02-06T09:18:33.234Z,102532.59
2023-02-06T09:21:16.455Z,102496.44
2023-02-06T09:23:45.852Z,102516.72
2023-02-06T09:26:15.293Z,102518.34
2023-02-06T09:28:42.409Z,102531.97
2023-02-06T09:31:09.854Z,102524.84
2023-02-06T09:33:38.530Z,102514.50
2023-02-06T09:36:11.409Z,102507.63
2023-02-06T09:38:43.700Z,102505.16
2023-02-06T09:41:39.338Z,102470.97
2023-02-06T09:44:38.208Z,102488.41
2023-02-06T09:47:22.701Z,102499.00
2023-02-06T09:49:53.472Z,102497.44
2023-02-06T09:52:51.612Z,102492.22
2023-02-06T09:55:39.372Z,102476.53
2023-02-06T09:58:43.130Z,102476.50
2023-02-06T10:01:15.593Z,102493.19
2023-02-06T10:04:13.106Z,102488.47
2023-02-06T10:06:40.055Z,102474.88
2023-02-06T10:09:11.735Z,102463.09
2023-02-06T10:11:40.555Z,102458.88
2023-02-06T10:14:39.889Z,102470.31
2023-02-06T10:17:16.517Z,102457.06
2023-02-06T10:19:49.819Z,102460.56
2023-02-06T10:22:38.056Z,102468.38
2023-02-06T10:25:33.560Z,102458.84
2023-02-06T10:28:30.860Z,102473.16
2023-02-06T10:31:09.685Z,102460.25
2023-02-06T10:33:39.496Z,102437.09
2023-02-06T10:36:09.119Z,102447.00
2023-02-06T10:38:58.263Z,102419.81
2023-02-06T10:42:03.984Z,102436.25
2023-02-06T10:45:18.555Z,102432.50
2023-02-06T10:47:56.225Z,102443.37
2023-02-06T10:50:28.070Z,102445.28
2023-02-06T10:52:57.801Z,102431.94
2023-02-06T10:55:49.526Z,102435.56
2023-02-06T10:58:20.910Z,102434.69
2023-02-06T11:00:49.437Z,102420.78
2023-02-06T11:03:20.231Z,102431.50
2023-02-06T11:05:47.977Z,102424.50
2023-02-06T11:08:22.206Z,102424.47
2023-02-06T11:10:50.278Z,102427.72
2023-02-06T11:13:37.198Z,102409.37
2023-02-06T11:16:13.643Z,102397.88
2023-02-06T11:18:44.442Z,102412.78
2023-02-06T11:21:13.801Z,102398.78
2023-02-06T11:23:42.147Z,102369.59
2023-02-06T11:26:15.105Z,102392.50
2023-02-06T11:28:56.744Z,102355.37
2023-02-06T11:31:39.264Z,102376.72
2023-02-06T11:34:06.468Z,102367.12
2023-02-06T11:36:35.478Z,102373.03
2023-02-06T11:39:15.957Z,102372.31
2023-02-06T11:42:00.366Z,102374.03
2023-02-06T11:44:30.164Z,102366.09
2023-02-06T11:46:57.151Z,102358.97
2023-02-06T11:49:27.132Z,102372.06
2023-02-06T11:51:56.417Z,102369.31
2023-02-06T11:54:28.411Z,102361.59
2023-02-06T11:57:07.817Z,102366.72
2023-02-06T11:59:36.540Z,102364.25
2023-02-06T12:02:24.557Z,102366.03
2023-02-06T12:04:57.059Z,102366.88
2023-02-06T12:07:34.128Z,102355.06
2023-02-06T12:10:13.349Z,102377.25
2023-02-06T12:12:42.652Z,102365.78
2023-02-06T12:15:39.775Z,102371.88
2023-02-06T12:18:10.245Z,102369.28
2023-02-06T12:21:05.020Z,102372.78
2023-02-06T12:23:38.369Z,102373.66
2023-02-06T12:26:12.232Z,102357.03
2023-02-06T12:29:03.532Z,102358.63
2023-02-06T12:31:41.573Z,102356.75
2023-02-06T12:34:15.273Z,102356.88
2023-02-06T12:37:13.991Z,102355.09
2023-02-06T12:39:43.272Z,102350.72
2023-02-06T12:42:46.863Z,102359.47
2023-02-06T12:45:38.383Z,102333.00
2023-02-06T12:48:28.790Z,102335.44
2023-02-06T12:51:18.815Z,102334.47
2023-02-06T12:54:05.070Z,102343.44
2023-02-06T12:56:40.657Z,102329.16
2023-02-06T12:59:07.451Z,102329.22
2023-02-06T13:01:52.658Z,102342.16
2023-02-06T13:04:23.861Z,102340.56
2023-02-06T13:06:59.904Z,102358.28
2023-02-06T13:09:32.460Z,102360.16
2023-02-06T13:12:23.326Z,102343.38
2023-02-06T13:14:55.788Z,102350.25
2023-02-06T13:17:28.027Z,102347.78
2023-02-06T13:20:07.154Z,102340.59
2023-02-06T13:22:34.622Z,102350.28
2023-02-06T13:25:02.001Z,102348.63
2023-02-06T13:27:39.376Z,102342.47
2023-02-06T13:30:45.727Z,102338.22
2023-02-06T13:33:23.181Z,102331.22
2023-02-06T13:36:02.249Z,102336.44
2023-02-06T13:38:42.352Z,102356.56
2023-02-06T13:41:15.346Z,102337.28
2023-02-06T13:44:01.256Z,102335.47
2023-02-06T13:47:08.609Z,102326.72
2023-02-06T13:50:12.766Z,102331.94
2023-02-06T13:53:11.845Z,102346.09
2023-02-06T13:55:50.895Z,102338.13
2023-02-06T13:58:36.246Z,102358.34
2023-02-06T14:01:05.368Z,102365.44
2023-02-06T14:03:34.671Z,102363.72
2023-02-06T14:06:11.498Z,102349.50
2023-02-06T14:09:12.605Z,102365.47
2023-02-06T14:12:17.572Z,102379.47
2023-02-06T14:14:58.568Z,102369.81
2023-02-06T14:17:49.211Z,102365.25
2023-02-06T14:20:31.009Z,102374.09
2023-02-06T14:23:07.449Z,102380.16
2023-02-06T14:25:44.398Z,102389.87
2023-02-06T14:28:42.394Z,102389.78
2023-02-06T14:31:21.722Z,102375.63
2023-02-06T14:34:06.907Z,102389.75
2023-02-06T14:36:39.874Z,102388.88
2023-02-06T14:39:44.600Z,102380.94
2023-02-06T14:42:37.062Z,102382.63
2023-02-06T14:45:20.693Z,102374.59
2023-02-06T14:47:48.001Z,102397.41
2023-02-06T14:50:40.484Z,102409.63
2023-02-06T14:53:10.663Z,102397.19
2023-02-06T14:55:42.140Z,102383.94
2023-02-06T14:58:27.310Z,102392.66
2023-02-06T15:00:55.718Z,102404.03
2023-02-06T15:03:25.655Z,102411.16
2023-02-06T15:06:07.373Z,102414.84
2023-02-06T15:08:34.733Z,102420.78
2023-02-06T15:11:06.633Z,102428.41
2023-02-06T15:13:37.352Z,102454.66
2023-02-06T15:16:07.932Z,102483.38
2023-02-06T15:18:35.874Z,102488.56
2023-02-06T15:21:05.222Z,102468.22
2023-02-06T15:23:50.178Z,102491.09
2023-02-06T15:26:38.589Z,102515.66
2023-02-06T15:29:17.859Z,102523.47
2023-02-06T15:31:49.851Z,102517.13
2023-02-06T15:34:19.403Z,102525.91
2023-02-06T15:36:46.536Z,102517.78
2023-02-06T15:39:14.556Z,102533.50
2023-02-06T15:41:45.802Z,102551.81
2023-02-06T15:44:18.804Z,102569.13
2023-02-06T15:46:48.332Z,102578.63
2023-02-06T15:49:19.293Z,102588.25
2023-02-06T15:51:53.576Z,102585.50
2023-02-06T15:54:23.894Z,102594.12
2023-02-06T15:56:54.735Z,102594.06
2023-02-06T15:59:25.330Z,102602.69
2023-02-06T16:01:54.516Z,102607.88
2023-02-06T16:04:30.527Z,102612.22
2023-02-06T16:07:06.619Z,102605.87
2023-02-06T16:09:44.038Z,102603.19
2023-02-06T16:12:11.309Z,102613.63
2023-02-06T16:14:40.745Z,102617.00
2023-02-06T16:17:10.339Z,102619.53
2023-02-06T16:19:56.028Z,102624.72
2023-02-06T16:22:30.165Z,102631.59
2023-02-06T16:25:29.573Z,102633.22
2023-02-06T16:27:56.765Z,102649.78
2023-02-06T16:30:28.487Z,102647.88
2023-02-06T16:32:57.535Z,102648.66
2023-02-06T16:35:24.798Z,102651.94
2023-02-06T16:37:53.367Z,102650.06
2023-02-06T16:40:20.362Z,102653.34
2023-02-06T16:42:47.741Z,102649.75
2023-02-06T16:45:22.721Z,102652.28
2023-02-06T16:47:49.884Z,102656.53
2023-02-06T16:50:17.214Z,102665.13
2023-02-06T16:52:53.131Z,102666.69
2023-02-06T16:55:25.898Z,102666.56
2023-02-06T16:57:55.278Z,102675.28
2023-02-06T17:00:24.467Z,102678.66
2023-02-06T17:02:54.793Z,102688.19
2023-02-06T17:05:24.180Z,102683.78
2023-02-06T17:07:51.468Z,102688.06
2023-02-06T17:10:22.669Z,102680.06
2023-02-06T17:12:50.701Z,102676.44
2023-02-06T17:15:18.592Z,102690.41
2023-02-06T17:17:45.556Z,102691.16
2023-02-06T17:20:28.446Z,102690.22
2023-02-06T17:22:56.925Z,102687.50
2023-02-06T17:25:24.274Z,102678.56
2023-02-06T17:27:51.409Z,102679.28
2023-02-06T17:30:20.739Z,102675.69
2023-02-06T17:32:48.037Z,102675.44
2023-02-06T17:35:15.350Z,102682.53
2023-02-06T17:37:42.254Z,102677.44
2023-02-06T17:40:12.385Z,102686.03
2023-02-06T17:42:40.633Z,102678.03
2023-02-06T17:45:08.274Z,102689.50
2023-02-06T17:47:35.280Z,102692.16
2023-02-06T17:50:04.652Z,102692.91
2023-02-06T17:52:31.556Z,102708.63
2023-02-06T17:54:58.731Z,102717.03
2023-02-06T17:57:26.000Z,102706.62
2023-02-06T17:59:53.682Z,102719.81
2023-02-06T18:02:21.180Z,102720.63
2023-02-06T18:04:54.071Z,102720.53
2023-02-06T18:07:22.279Z,102711.41
2023-02-06T18:09:49.897Z,102722.03
2023-02-06T18:12:18.784Z,102711.22
2023-02-06T18:14:48.010Z,102730.72
2023-02-06T18:17:14.884Z,102724.44
2023-02-06T18:19:42.675Z,102721.72
2023-02-06T18:22:18.354Z,102730.38
2023-02-06T18:24:45.662Z,102725.97
2023-02-06T18:27:13.220Z,102727.66
2023-02-06T18:29:50.580Z,102729.31
2023-02-06T18:32:19.201Z,102731.81
2023-02-06T18:34:47.035Z,102730.59
2023-02-06T18:37:14.317Z,102746.38
2023-02-06T18:39:43.142Z,102742.81
2023-02-06T18:42:30.188Z,102745.28
2023-02-06T18:44:57.285Z,102743.50
2023-02-06T18:47:24.527Z,102748.69
2023-02-06T18:49:51.493Z,102751.16
2023-02-06T18:52:18.655Z,102758.91
2023-02-06T18:54:45.929Z,102757.06
2023-02-06T18:57:12.816Z,102762.22
2023-02-06T18:59:44.127Z,102769.75
2023-02-06T19:02:11.948Z,102767.78
2023-02-06T19:04:40.628Z,102781.31
2023-02-06T19:07:09.063Z,102776.47
2023-02-06T19:09:36.328Z,102773.25
2023-02-06T19:12:04.236Z,102781.12
2023-02-06T19:14:31.566Z,102793.59
2023-02-06T19:16:58.536Z,102809.59
2023-02-06T19:19:25.921Z,102817.97
2023-02-06T19:21:53.596Z,102827.59
2023-02-06T19:24:20.583Z,102836.19
2023-02-06T19:26:47.683Z,102823.91
2023-02-06T19:29:19.311Z,102837.09
2023-02-06T19:31:51.507Z,102832.91
2023-02-06T19:34:18.699Z,102831.00
2023-02-06T19:36:46.087Z,102824.19
2023-02-06T19:39:14.277Z,102829.34
2023-02-06T19:41:41.518Z,102813.72
2023-02-06T19:44:10.649Z,102809.59
2023-02-06T19:46:38.181Z,102804.28
2023-02-06T19:49:08.525Z,102803.63
2023-02-06T19:51:39.108Z,102810.59
2023-02-06T19:54:07.371Z,102816.78
2023-02-06T19:56:40.004Z,102817.72
2023-02-06T19:59:21.956Z,102824.69
2023-02-06T20:02:07.714Z,102831.62
2023-02-06T20:04:36.368Z,102833.31
2023-02-06T20:07:03.342Z,102835.00
2023-02-06T20:09:32.104Z,102837.50
2023-02-06T20:11:59.251Z,102842.84
2023-02-06T20:14:26.869Z,102848.88
2023-02-06T20:16:54.461Z,102848.19
2023-02-06T20:19:24.739Z,102854.13
2023-02-06T20:21:54.680Z,102851.38
2023-02-06T20:24:25.874Z,102850.47
2023-02-06T20:26:57.024Z,102844.16
2023-02-06T20:29:24.137Z,102860.81
2023-02-06T20:31:52.148Z,102857.16
2023-02-06T20:34:19.795Z,102847.34
2023-02-06T20:36:47.445Z,102857.16
2023-02-06T20:39:15.295Z,102854.50
2023-02-06T20:41:44.060Z,102856.00
2023-02-06T20:44:12.493Z,102839.97
2023-02-06T20:46:40.054Z,102845.25
2023-02-06T20:49:12.595Z,102851.28
2023-02-06T20:51:39.681Z,102854.72
2023-02-06T20:54:06.843Z,102859.81
2023-02-06T20:56:33.967Z,102868.97
2023-02-06T20:59:01.529Z,102869.91
2023-02-06T21:01:30.668Z,102882.94
2023-02-06T21:04:00.726Z,102881.09
2023-02-06T21:06:29.303Z,102880.97
2023-02-06T21:09:03.129Z,102879.25
2023-02-06T21:11:37.360Z,102872.59
2023-02-06T21:14:05.604Z,102876.31
2023-02-06T21:16:33.666Z,102881.50
2023-02-06T21:19:02.979Z,102876.19
2023-02-06T21:21:29.906Z,102868.28
2023-02-06T21:23:56.819Z,102860.19
2023-02-06T21:26:24.622Z,102896.84
2023-02-06T21:28:52.203Z,102889.72
2023-02-06T21:31:24.716Z,102892.97
2023-02-06T21:33:52.473Z,102892.88
2023-02-06T21:36:21.188Z,102878.53
2023-02-06T21:38:48.229Z,102895.44
2023-02-06T21:41:17.698Z,102893.50
2023-02-06T21:43:45.117Z,102883.13
2023-02-06T21:46:13.229Z,102890.00
2023-02-06T21:48:40.766Z,102888.25
2023-02-06T21:51:09.644Z,102888.91
2023-02-06T21:53:36.776Z,102894.00
2023-02-06T21:56:08.249Z,102884.97
2023-02-06T21:58:36.299Z,102902.56
2023-02-06T22:01:08.508Z,102913.00
2023-02-06T22:03:36.382Z,102913.84
2023-02-06T22:06:09.222Z,102916.38
2023-02-06T22:08:37.207Z,102912.03
2023-02-06T22:11:21.397Z,102915.41
2023-02-06T22:13:48.539Z,102913.72
2023-02-06T22:16:19.431Z,102910.19
2023-02-06T22:18:46.618Z,102912.88
2023-02-06T22:21:17.141Z,102913.78
2023-02-06T22:23:45.032Z,102920.84
2023-02-06T22:26:14.210Z,102924.56
2023-02-06T22:28:42.074Z,102930.59
2023-02-06T22:31:24.453Z,102923.72
2023-02-06T22:33:51.762Z,102926.28
2023-02-06T22:36:24.136Z,102915.63
2023-02-06T22:38:57.419Z,102921.69
2023-02-06T22:41:24.359Z,102919.56
2023-02-06T22:43:51.706Z,102927.78
2023-02-06T22:46:24.757Z,102924.81
2023-02-06T22:48:52.001Z,102931.56
2023-02-06T22:51:20.020Z,102929.16
2023-02-06T22:53:47.207Z,102932.63
2023-02-06T22:56:29.548Z,102934.91
2023-02-06T22:59:00.243Z,102929.97
2023-02-06T23:01:31.856Z,102934.78
2023-02-06T23:03:59.842Z,102937.25
2023-02-06T23:06:28.228Z,102942.75
2023-02-06T23:08:56.450Z,102939.31
2023-02-06T23:11:24.219Z,102939.41
2023-02-06T23:13:53.258Z,102946.53
2023-02-06T23:16:20.745Z,102944.00
2023-02-06T23:18:47.948Z,102933.47
2023-02-06T23:21:15.609Z,102923.59
2023-02-06T23:23:42.774Z,102941.25
2023-02-06T23:26:11.534Z,102948.94
2023-02-06T23:28:39.117Z,102943.72
2023-02-06T23:31:06.822Z,102942.81
2023-02-06T23:33:34.453Z,102940.00
2023-02-06T23:36:13.257Z,102938.28
2023-02-06T23:38:40.424Z,102938.06
2023-02-06T23:41:10.489Z,102939.69
2023-02-06T23:43:38.196Z,102942.16
2023-02-06T23:46:06.150Z,102958.53
2023-02-06T23:48:33.668Z,102959.09
2023-02-06T23:51:00.803Z,102965.78
2023-02-06T23:53:28.488Z,102966.09
2023-02-06T23:55:55.513Z,102977.94
2023-02-06T23:58:22.510Z,102975.19
